sensor_id;sensor_type;location;lat;lon;timestamp;P1;durP1;ratioP1;P2;durP2;ratioP2
8889;SDS011;4481;43.406;24.454;2023-01-13T00:01:10;11.60;;;7.73;;
8889;SDS011;4481;43.406;24.454;2023-01-13T00:03:38;9.10;;;7.70;;
8889;SDS011;4481;43.406;24.454;2023-01-13T00:06:05;9.13;;;7.27;;
8889;SDS011;4481;43.406;24.454;2023-01-13T00:08:32;8.83;;;6.93;;
8889;SDS011;4481;43.406;24.454;2023-01-13T00:11:00;6.90;;;6.10;;
8889;SDS011;4481;43.406;24.454;2023-01-13T00:13:26;7.43;;;6.33;;
8889;SDS011;4481;43.406;24.454;2023-01-13T00:15:55;11.10;;;6.47;;
8889;SDS011;4481;43.406;24.454;2023-01-13T00:18:22;9.50;;;6.73;;
8889;SDS011;4481;43.406;24.454;2023-01-13T00:20:56;10.43;;;7.10;;
8889;SDS011;4481;43.406;24.454;2023-01-13T00:23:23;8.03;;;6.77;;
8889;SDS011;4481;43.406;24.454;2023-01-13T00:25:49;8.87;;;6.90;;
8889;SDS011;4481;43.406;24.454;2023-01-13T00:28:15;9.37;;;7.47;;
8889;SDS011;4481;43.406;24.454;2023-01-13T00:30:42;8.77;;;7.00;;
8889;SDS011;4481;43.406;24.454;2023-01-13T00:33:08;13.47;;;6.50;;
8889;SDS011;4481;43.406;24.454;2023-01-13T00:35:34;9.10;;;7.57;;
8889;SDS011;4481;43.406;24.454;2023-01-13T00:38:00;9.00;;;7.03;;
8889;SDS011;4481;43.406;24.454;2023-01-13T00:40:26;9.07;;;7.20;;
8889;SDS011;4481;43.406;24.454;2023-01-13T00:42:52;9.00;;;6.80;;
8889;SDS011;4481;43.406;24.454;2023-01-13T00:45:37;7.90;;;6.53;;
8889;SDS011;4481;43.406;24.454;2023-01-13T00:48:03;10.20;;;7.27;;
8889;SDS011;4481;43.406;24.454;2023-01-13T00:50:29;9.53;;;7.47;;
8889;SDS011;4481;43.406;24.454;2023-01-13T00:52:57;13.57;;;8.33;;
8889;SDS011;4481;43.406;24.454;2023-01-13T00:55:24;8.60;;;7.50;;
8889;SDS011;4481;43.406;24.454;2023-01-13T00:57:51;8.93;;;7.33;;
8889;SDS011;4481;43.406;24.454;2023-01-13T01:00:17;8.80;;;6.97;;
8889;SDS011;4481;43.406;24.454;2023-01-13T01:02:44;11.60;;;9.33;;
8889;SDS011;4481;43.406;24.454;2023-01-13T01:05:11;9.17;;;7.90;;
8889;SDS011;4481;43.406;24.454;2023-01-13T01:07:37;10.53;;;8.30;;
8889;SDS011;4481;43.406;24.454;2023-01-13T01:10:03;12.23;;;9.13;;
8889;SDS011;4481;43.406;24.454;2023-01-13T01:12:30;10.03;;;8.30;;
8889;SDS011;4481;43.406;24.454;2023-01-13T01:14:56;10.00;;;8.03;;
8889;SDS011;4481;43.406;24.454;2023-01-13T01:17:22;10.77;;;8.57;;
8889;SDS011;4481;43.406;24.454;2023-01-13T01:19:48;8.17;;;7.37;;
8889;SDS011;4481;43.406;24.454;2023-01-13T01:22:15;9.50;;;7.63;;
8889;SDS011;4481;43.406;24.454;2023-01-13T01:24:41;9.00;;;6.90;;
8889;SDS011;4481;43.406;24.454;2023-01-13T01:27:07;12.60;;;9.20;;
8889;SDS011;4481;43.406;24.454;2023-01-13T01:29:33;9.80;;;8.27;;
8889;SDS011;4481;43.406;24.454;2023-01-13T01:31:59;8.90;;;8.00;;
8889;SDS011;4481;43.406;24.454;2023-01-13T01:34:25;10.83;;;7.70;;
8889;SDS011;4481;43.406;24.454;2023-01-13T01:36:52;8.80;;;7.40;;
8889;SDS011;4481;43.406;24.454;2023-01-13T01:39:18;11.33;;;8.27;;
8889;SDS011;4481;43.406;24.454;2023-01-13T01:41:44;10.97;;;7.90;;
8889;SDS011;4481;43.406;24.454;2023-01-13T01:47:20;9.27;;;7.60;;
8889;SDS011;4481;43.406;24.454;2023-01-13T01:49:48;8.93;;;7.60;;
8889;SDS011;4481;43.406;24.454;2023-01-13T01:52:15;10.37;;;7.47;;
8889;SDS011;4481;43.406;24.454;2023-01-13T01:54:47;9.57;;;6.83;;
8889;SDS011;4481;43.406;24.454;2023-01-13T01:57:18;9.73;;;7.10;;
8889;SDS011;4481;43.406;24.454;2023-01-13T01:59:50;6.90;;;6.13;;
8889;SDS011;4481;43.406;24.454;2023-01-13T02:02:17;10.27;;;7.70;;
8889;SDS011;4481;43.406;24.454;2023-01-13T02:04:46;11.97;;;8.07;;
8889;SDS011;4481;43.406;24.454;2023-01-13T02:07:16;9.67;;;8.20;;
8889;SDS011;4481;43.406;24.454;2023-01-13T02:09:45;12.30;;;9.20;;
8889;SDS011;4481;43.406;24.454;2023-01-13T02:12:12;10.10;;;7.97;;
8889;SDS011;4481;43.406;24.454;2023-01-13T02:14:54;11.47;;;8.30;;
8889;SDS011;4481;43.406;24.454;2023-01-13T02:17:25;10.70;;;7.87;;
8889;SDS011;4481;43.406;24.454;2023-01-13T02:29:43;10.40;;;8.80;;
8889;SDS011;4481;43.406;24.454;2023-01-13T02:32:57;11.70;;;9.13;;
8889;SDS011;4481;43.406;24.454;2023-01-13T02:35:31;12.73;;;8.70;;
8889;SDS011;4481;43.406;24.454;2023-01-13T02:38:01;9.17;;;7.73;;
8889;SDS011;4481;43.406;24.454;2023-01-13T02:40:30;10.03;;;7.40;;
8889;SDS011;4481;43.406;24.454;2023-01-13T02:43:01;11.27;;;8.77;;
8889;SDS011;4481;43.406;24.454;2023-01-13T02:45:52;14.07;;;9.60;;
8889;SDS011;4481;43.406;24.454;2023-01-13T02:48:23;15.03;;;10.90;;
8889;SDS011;4481;43.406;24.454;2023-01-13T02:50:54;11.53;;;9.37;;
8889;SDS011;4481;43.406;24.454;2023-01-13T02:53:25;12.37;;;9.90;;
8889;SDS011;4481;43.406;24.454;2023-01-13T02:55:56;14.37;;;9.30;;
8889;SDS011;4481;43.406;24.454;2023-01-13T02:58:26;11.20;;;8.17;;
8889;SDS011;4481;43.406;24.454;2023-01-13T03:00:55;9.60;;;8.07;;
8889;SDS011;4481;43.406;24.454;2023-01-13T03:03:21;10.57;;;8.07;;
8889;SDS011;4481;43.406;24.454;2023-01-13T03:05:48;12.37;;;8.87;;
8889;SDS011;4481;43.406;24.454;2023-01-13T03:08:21;9.63;;;8.10;;
8889;SDS011;4481;43.406;24.454;2023-01-13T03:11:03;9.40;;;7.93;;
8889;SDS011;4481;43.406;24.454;2023-01-13T03:16:49;11.87;;;8.17;;
8889;SDS011;4481;43.406;24.454;2023-01-13T03:19:28;10.80;;;8.53;;
8889;SDS011;4481;43.406;24.454;2023-01-13T03:22:03;9.73;;;7.87;;
8889;SDS011;4481;43.406;24.454;2023-01-13T03:24:37;14.47;;;9.37;;
8889;SDS011;4481;43.406;24.454;2023-01-13T03:27:08;12.60;;;9.90;;
8889;SDS011;4481;43.406;24.454;2023-01-13T03:29:41;11.70;;;9.03;;
8889;SDS011;4481;43.406;24.454;2023-01-13T03:32:12;11.73;;;9.17;;
8889;SDS011;4481;43.406;24.454;2023-01-13T03:34:45;11.77;;;8.83;;
8889;SDS011;4481;43.406;24.454;2023-01-13T03:37:13;13.27;;;9.87;;
8889;SDS011;4481;43.406;24.454;2023-01-13T03:39:42;12.97;;;9.60;;
8889;SDS011;4481;43.406;24.454;2023-01-13T03:42:13;11.03;;;9.27;;
8889;SDS011;4481;43.406;24.454;2023-01-13T03:44:44;11.17;;;8.87;;
8889;SDS011;4481;43.406;24.454;2023-01-13T03:47:15;14.33;;;9.57;;
8889;SDS011;4481;43.406;24.454;2023-01-13T03:49:48;9.90;;;8.03;;
8889;SDS011;4481;43.406;24.454;2023-01-13T03:52:21;10.73;;;8.90;;
8889;SDS011;4481;43.406;24.454;2023-01-13T03:54:52;12.87;;;8.87;;
8889;SDS011;4481;43.406;24.454;2023-01-13T03:57:23;10.93;;;9.17;;
8889;SDS011;4481;43.406;24.454;2023-01-13T03:59:54;11.40;;;7.93;;
8889;SDS011;4481;43.406;24.454;2023-01-13T04:02:28;10.60;;;8.40;;
8889;SDS011;4481;43.406;24.454;2023-01-13T04:05:03;10.07;;;7.90;;
8889;SDS011;4481;43.406;24.454;2023-01-13T04:07:36;9.80;;;7.43;;
8889;SDS011;4481;43.406;24.454;2023-01-13T04:10:08;10.93;;;7.97;;
8889;SDS011;4481;43.406;24.454;2023-01-13T04:12:37;8.83;;;7.13;;
8889;SDS011;4481;43.406;24.454;2023-01-13T04:15:34;9.97;;;7.63;;
8889;SDS011;4481;43.406;24.454;2023-01-13T04:18:13;12.70;;;8.47;;
8889;SDS011;4481;43.406;24.454;2023-01-13T04:20:41;11.40;;;9.53;;
8889;SDS011;4481;43.406;24.454;2023-01-13T04:23:08;9.80;;;8.17;;
8889;SDS011;4481;43.406;24.454;2023-01-13T04:25:34;11.33;;;9.27;;
8889;SDS011;4481;43.406;24.454;2023-01-13T04:28:01;11.97;;;10.73;;
8889;SDS011;4481;43.406;24.454;2023-01-13T04:30:27;12.93;;;9.70;;
8889;SDS011;4481;43.406;24.454;2023-01-13T04:32:53;13.97;;;10.30;;
8889;SDS011;4481;43.406;24.454;2023-01-13T04:35:20;14.23;;;9.67;;
8889;SDS011;4481;43.406;24.454;2023-01-13T04:37:46;13.03;;;10.77;;
8889;SDS011;4481;43.406;24.454;2023-01-13T04:40:12;15.60;;;11.03;;
8889;SDS011;4481;43.406;24.454;2023-01-13T04:42:39;11.87;;;9.67;;
8889;SDS011;4481;43.406;24.454;2023-01-13T04:45:05;13.03;;;11.00;;
8889;SDS011;4481;43.406;24.454;2023-01-13T04:47:33;17.03;;;10.67;;
8889;SDS011;4481;43.406;24.454;2023-01-13T04:49:59;12.70;;;9.93;;
8889;SDS011;4481;43.406;24.454;2023-01-13T04:52:26;11.10;;;8.47;;
8889;SDS011;4481;43.406;24.454;2023-01-13T04:54:52;10.03;;;8.30;;
8889;SDS011;4481;43.406;24.454;2023-01-13T04:57:18;10.80;;;7.87;;
8889;SDS011;4481;43.406;24.454;2023-01-13T04:59:44;14.67;;;8.47;;
8889;SDS011;4481;43.406;24.454;2023-01-13T05:02:10;14.57;;;9.57;;
8889;SDS011;4481;43.406;24.454;2023-01-13T05:04:43;10.93;;;8.83;;
8889;SDS011;4481;43.406;24.454;2023-01-13T05:07:09;11.67;;;9.47;;
8889;SDS011;4481;43.406;24.454;2023-01-13T05:09:36;13.17;;;10.47;;
8889;SDS011;4481;43.406;24.454;2023-01-13T05:12:02;13.00;;;10.80;;
8889;SDS011;4481;43.406;24.454;2023-01-13T05:14:47;11.20;;;9.27;;
8889;SDS011;4481;43.406;24.454;2023-01-13T05:17:31;11.50;;;9.50;;
8889;SDS011;4481;43.406;24.454;2023-01-13T05:19:58;12.03;;;9.43;;
8889;SDS011;4481;43.406;24.454;2023-01-13T05:22:24;9.57;;;8.57;;
8889;SDS011;4481;43.406;24.454;2023-01-13T05:25:09;9.00;;;7.77;;
8889;SDS011;4481;43.406;24.454;2023-01-13T05:27:49;9.80;;;8.20;;
8889;SDS011;4481;43.406;24.454;2023-01-13T05:30:17;10.83;;;8.17;;
8889;SDS011;4481;43.406;24.454;2023-01-13T05:32:45;11.40;;;8.10;;
8889;SDS011;4481;43.406;24.454;2023-01-13T05:35:11;9.10;;;7.97;;
8889;SDS011;4481;43.406;24.454;2023-01-13T05:37:37;17.97;;;12.17;;
8889;SDS011;4481;43.406;24.454;2023-01-13T05:40:04;24.20;;;14.60;;
8889;SDS011;4481;43.406;24.454;2023-01-13T05:42:59;15.43;;;11.90;;
8889;SDS011;4481;43.406;24.454;2023-01-13T05:45:44;17.70;;;10.30;;
8889;SDS011;4481;43.406;24.454;2023-01-13T05:48:12;15.10;;;10.53;;
8889;SDS011;4481;43.406;24.454;2023-01-13T05:50:38;16.17;;;10.10;;
8889;SDS011;4481;43.406;24.454;2023-01-13T05:53:04;12.77;;;9.73;;
8889;SDS011;4481;43.406;24.454;2023-01-13T05:55:31;13.27;;;9.70;;
8889;SDS011;4481;43.406;24.454;2023-01-13T05:57:57;12.17;;;10.17;;
8889;SDS011;4481;43.406;24.454;2023-01-13T06:00:24;13.10;;;9.07;;
8889;SDS011;4481;43.406;24.454;2023-01-13T06:02:51;10.00;;;9.00;;
8889;SDS011;4481;43.406;24.454;2023-01-13T06:05:17;12.27;;;8.83;;
8889;SDS011;4481;43.406;24.454;2023-01-13T06:07:43;11.30;;;7.40;;
8889;SDS011;4481;43.406;24.454;2023-01-13T06:10:10;11.53;;;7.73;;
8889;SDS011;4481;43.406;24.454;2023-01-13T06:12:36;10.10;;;7.83;;
8889;SDS011;4481;43.406;24.454;2023-01-13T06:15:03;9.50;;;7.43;;
8889;SDS011;4481;43.406;24.454;2023-01-13T06:17:30;8.13;;;7.30;;
8889;SDS011;4481;43.406;24.454;2023-01-13T06:19:56;8.60;;;7.13;;
8889;SDS011;4481;43.406;24.454;2023-01-13T06:22:23;9.37;;;7.00;;
8889;SDS011;4481;43.406;24.454;2023-01-13T06:24:52;8.60;;;7.10;;
8889;SDS011;4481;43.406;24.454;2023-01-13T06:27:19;9.50;;;7.40;;
8889;SDS011;4481;43.406;24.454;2023-01-13T06:29:47;9.17;;;7.10;;
8889;SDS011;4481;43.406;24.454;2023-01-13T06:32:14;12.93;;;7.97;;
8889;SDS011;4481;43.406;24.454;2023-01-13T06:34:44;10.47;;;8.03;;
8889;SDS011;4481;43.406;24.454;2023-01-13T06:37:16;7.90;;;6.73;;
8889;SDS011;4481;43.406;24.454;2023-01-13T06:39:49;10.30;;;7.57;;
8889;SDS011;4481;43.406;24.454;2023-01-13T06:42:16;9.90;;;6.90;;
8889;SDS011;4481;43.406;24.454;2023-01-13T06:45:00;9.43;;;7.07;;
8889;SDS011;4481;43.406;24.454;2023-01-13T06:47:26;10.53;;;7.30;;
8889;SDS011;4481;43.406;24.454;2023-01-13T06:49:53;9.20;;;7.43;;
8889;SDS011;4481;43.406;24.454;2023-01-13T06:52:19;16.50;;;10.80;;
8889;SDS011;4481;43.406;24.454;2023-01-13T06:54:46;26.33;;;19.00;;
8889;SDS011;4481;43.406;24.454;2023-01-13T06:57:12;37.80;;;29.63;;
8889;SDS011;4481;43.406;24.454;2023-01-13T06:59:39;22.93;;;20.50;;
8889;SDS011;4481;43.406;24.454;2023-01-13T07:02:05;21.03;;;16.37;;
8889;SDS011;4481;43.406;24.454;2023-01-13T07:04:31;22.97;;;18.90;;
8889;SDS011;4481;43.406;24.454;2023-01-13T07:06:58;21.83;;;18.20;;
8889;SDS011;4481;43.406;24.454;2023-01-13T07:09:24;16.70;;;13.37;;
8889;SDS011;4481;43.406;24.454;2023-01-13T07:11:51;19.67;;;13.27;;
8889;SDS011;4481;43.406;24.454;2023-01-13T07:14:17;18.60;;;13.70;;
8889;SDS011;4481;43.406;24.454;2023-01-13T07:17:01;11.97;;;10.50;;
8889;SDS011;4481;43.406;24.454;2023-01-13T07:19:28;12.87;;;9.77;;
8889;SDS011;4481;43.406;24.454;2023-01-13T07:21:54;10.30;;;7.33;;
8889;SDS011;4481;43.406;24.454;2023-01-13T07:24:21;10.23;;;8.47;;
8889;SDS011;4481;43.406;24.454;2023-01-13T07:26:47;10.37;;;7.47;;
8889;SDS011;4481;43.406;24.454;2023-01-13T07:29:15;7.53;;;6.40;;
8889;SDS011;4481;43.406;24.454;2023-01-13T07:31:41;14.00;;;5.87;;
8889;SDS011;4481;43.406;24.454;2023-01-13T07:34:07;7.43;;;6.73;;
8889;SDS011;4481;43.406;24.454;2023-01-13T07:36:34;14.40;;;12.90;;
8889;SDS011;4481;43.406;24.454;2023-01-13T07:39:03;11.07;;;8.63;;
8889;SDS011;4481;43.406;24.454;2023-01-13T07:41:30;12.00;;;8.80;;
8889;SDS011;4481;43.406;24.454;2023-01-13T07:44:15;9.93;;;8.00;;
8889;SDS011;4481;43.406;24.454;2023-01-13T07:46:41;13.20;;;9.30;;
8889;SDS011;4481;43.406;24.454;2023-01-13T07:49:07;11.13;;;9.77;;
8889;SDS011;4481;43.406;24.454;2023-01-13T07:51:34;9.27;;;7.40;;
8889;SDS011;4481;43.406;24.454;2023-01-13T07:54:01;19.27;;;14.50;;
8889;SDS011;4481;43.406;24.454;2023-01-13T07:56:31;18.87;;;12.47;;
8889;SDS011;4481;43.406;24.454;2023-01-13T07:58:57;15.97;;;12.83;;
8889;SDS011;4481;43.406;24.454;2023-01-13T08:01:26;17.83;;;14.50;;
8889;SDS011;4481;43.406;24.454;2023-01-13T08:03:53;17.33;;;12.43;;
8889;SDS011;4481;43.406;24.454;2023-01-13T08:06:20;10.73;;;9.13;;
8889;SDS011;4481;43.406;24.454;2023-01-13T08:08:46;14.20;;;9.63;;
8889;SDS011;4481;43.406;24.454;2023-01-13T08:11:13;9.93;;;8.93;;
8889;SDS011;4481;43.406;24.454;2023-01-13T08:13:39;12.90;;;7.33;;
8889;SDS011;4481;43.406;24.454;2023-01-13T08:16:06;8.10;;;6.70;;
8889;SDS011;4481;43.406;24.454;2023-01-13T08:18:34;10.57;;;6.30;;
8889;SDS011;4481;43.406;24.454;2023-01-13T08:21:01;9.77;;;7.73;;
8889;SDS011;4481;43.406;24.454;2023-01-13T08:23:29;10.33;;;7.40;;
8889;SDS011;4481;43.406;24.454;2023-01-13T08:25:58;8.53;;;6.60;;
8889;SDS011;4481;43.406;24.454;2023-01-13T08:28:25;9.97;;;6.53;;
8889;SDS011;4481;43.406;24.454;2023-01-13T08:30:52;8.47;;;6.77;;
8889;SDS011;4481;43.406;24.454;2023-01-13T08:33:19;7.17;;;6.30;;
8889;SDS011;4481;43.406;24.454;2023-01-13T08:35:45;8.43;;;6.37;;
8889;SDS011;4481;43.406;24.454;2023-01-13T08:38:13;8.57;;;5.67;;
8889;SDS011;4481;43.406;24.454;2023-01-13T08:40:39;6.87;;;6.00;;
8889;SDS011;4481;43.406;24.454;2023-01-13T08:43:05;7.30;;;5.63;;
8889;SDS011;4481;43.406;24.454;2023-01-13T08:45:31;7.97;;;6.23;;
8889;SDS011;4481;43.406;24.454;2023-01-13T08:47:58;7.27;;;5.43;;
8889;SDS011;4481;43.406;24.454;2023-01-13T08:50:24;6.73;;;5.40;;
8889;SDS011;4481;43.406;24.454;2023-01-13T08:52:50;6.20;;;5.37;;
8889;SDS011;4481;43.406;24.454;2023-01-13T08:55:17;8.07;;;5.93;;
8889;SDS011;4481;43.406;24.454;2023-01-13T08:57:43;5.70;;;5.00;;
8889;SDS011;4481;43.406;24.454;2023-01-13T09:00:10;13.03;;;7.53;;
8889;SDS011;4481;43.406;24.454;2023-01-13T09:02:38;14.87;;;8.63;;
8889;SDS011;4481;43.406;24.454;2023-01-13T09:05:05;8.87;;;7.20;;
8889;SDS011;4481;43.406;24.454;2023-01-13T09:07:31;10.50;;;6.83;;
8889;SDS011;4481;43.406;24.454;2023-01-13T09:09:57;11.13;;;7.40;;
8889;SDS011;4481;43.406;24.454;2023-01-13T09:12:24;8.80;;;7.30;;
8889;SDS011;4481;43.406;24.454;2023-01-13T09:15:08;11.10;;;7.80;;
8889;SDS011;4481;43.406;24.454;2023-01-13T09:17:35;10.33;;;7.13;;
8889;SDS011;4481;43.406;24.454;2023-01-13T09:20:01;11.43;;;7.67;;
8889;SDS011;4481;43.406;24.454;2023-01-13T09:22:28;8.07;;;6.67;;
8889;SDS011;4481;43.406;24.454;2023-01-13T09:24:54;9.60;;;6.93;;
8889;SDS011;4481;43.406;24.454;2023-01-13T09:27:21;11.00;;;6.90;;
8889;SDS011;4481;43.406;24.454;2023-01-13T09:29:48;8.07;;;6.73;;
8889;SDS011;4481;43.406;24.454;2023-01-13T09:32:14;9.33;;;6.30;;
8889;SDS011;4481;43.406;24.454;2023-01-13T09:34:41;10.40;;;7.37;;
8889;SDS011;4481;43.406;24.454;2023-01-13T09:37:26;11.63;;;7.53;;
8889;SDS011;4481;43.406;24.454;2023-01-13T09:39:54;11.07;;;7.50;;
8889;SDS011;4481;43.406;24.454;2023-01-13T09:42:23;8.60;;;6.90;;
8889;SDS011;4481;43.406;24.454;2023-01-13T09:45:13;7.60;;;6.43;;
8889;SDS011;4481;43.406;24.454;2023-01-13T09:47:45;8.27;;;6.27;;
8889;SDS011;4481;43.406;24.454;2023-01-13T09:50:22;7.80;;;6.43;;
8889;SDS011;4481;43.406;24.454;2023-01-13T09:52:55;9.20;;;6.60;;
8889;SDS011;4481;43.406;24.454;2023-01-13T09:55:24;10.30;;;7.43;;
8889;SDS011;4481;43.406;24.454;2023-01-13T09:57:55;10.10;;;8.57;;
8889;SDS011;4481;43.406;24.454;2023-01-13T10:00:21;13.40;;;8.27;;
8889;SDS011;4481;43.406;24.454;2023-01-13T10:02:56;8.57;;;7.67;;
8889;SDS011;4481;43.406;24.454;2023-01-13T10:05:33;7.77;;;6.97;;
8889;SDS011;4481;43.406;24.454;2023-01-13T10:08:02;13.13;;;8.00;;
8889;SDS011;4481;43.406;24.454;2023-01-13T10:10:36;12.03;;;7.33;;
8889;SDS011;4481;43.406;24.454;2023-01-13T10:13:12;8.57;;;7.60;;
8889;SDS011;4481;43.406;24.454;2023-01-13T10:15:42;8.97;;;6.10;;
8889;SDS011;4481;43.406;24.454;2023-01-13T10:18:17;7.60;;;6.57;;
8889;SDS011;4481;43.406;24.454;2023-01-13T10:20:51;12.87;;;8.77;;
8889;SDS011;4481;43.406;24.454;2023-01-13T10:23:33;14.20;;;10.10;;
8889;SDS011;4481;43.406;24.454;2023-01-13T10:26:16;10.33;;;8.57;;
8889;SDS011;4481;43.406;24.454;2023-01-13T10:28:56;6.97;;;6.00;;
8889;SDS011;4481;43.406;24.454;2023-01-13T10:31:23;8.13;;;6.40;;
8889;SDS011;4481;43.406;24.454;2023-01-13T10:33:56;7.70;;;6.70;;
8889;SDS011;4481;43.406;24.454;2023-01-13T10:36:23;9.13;;;6.03;;
8889;SDS011;4481;43.406;24.454;2023-01-13T10:38:50;8.37;;;6.43;;
8889;SDS011;4481;43.406;24.454;2023-01-13T10:41:17;7.47;;;6.03;;
8889;SDS011;4481;43.406;24.454;2023-01-13T10:43:56;7.70;;;6.07;;
8889;SDS011;4481;43.406;24.454;2023-01-13T10:46:24;7.80;;;6.13;;
8889;SDS011;4481;43.406;24.454;2023-01-13T10:48:51;7.87;;;6.40;;
8889;SDS011;4481;43.406;24.454;2023-01-13T10:51:22;6.67;;;5.90;;
8889;SDS011;4481;43.406;24.454;2023-01-13T10:53:53;8.83;;;6.63;;
8889;SDS011;4481;43.406;24.454;2023-01-13T10:56:22;10.10;;;6.67;;
8889;SDS011;4481;43.406;24.454;2023-01-13T10:58:51;7.93;;;6.77;;
8889;SDS011;4481;43.406;24.454;2023-01-13T11:01:22;8.13;;;6.40;;
8889;SDS011;4481;43.406;24.454;2023-01-13T11:03:50;10.00;;;6.97;;
8889;SDS011;4481;43.406;24.454;2023-01-13T11:06:19;10.33;;;7.23;;
8889;SDS011;4481;43.406;24.454;2023-01-13T11:08:48;12.67;;;7.57;;
8889;SDS011;4481;43.406;24.454;2023-01-13T11:14:08;12.97;;;11.00;;
8889;SDS011;4481;43.406;24.454;2023-01-13T11:16:59;12.03;;;9.13;;
8889;SDS011;4481;43.406;24.454;2023-01-13T11:19:30;17.13;;;10.60;;
8889;SDS011;4481;43.406;24.454;2023-01-13T11:21:59;18.23;;;14.57;;
8889;SDS011;4481;43.406;24.454;2023-01-13T11:24:30;13.50;;;11.70;;
8889;SDS011;4481;43.406;24.454;2023-01-13T11:27:04;9.97;;;8.83;;
8889;SDS011;4481;43.406;24.454;2023-01-13T11:29:39;14.77;;;8.43;;
8889;SDS011;4481;43.406;24.454;2023-01-13T11:32:10;14.00;;;9.63;;
8889;SDS011;4481;43.406;24.454;2023-01-13T11:34:39;11.50;;;8.90;;
8889;SDS011;4481;43.406;24.454;2023-01-13T11:37:09;9.40;;;7.10;;
8889;SDS011;4481;43.406;24.454;2023-01-13T11:39:44;8.20;;;6.23;;
8889;SDS011;4481;43.406;24.454;2023-01-13T11:42:19;15.47;;;10.20;;
8889;SDS011;4481;43.406;24.454;2023-01-13T11:44:56;12.27;;;8.43;;
8889;SDS011;4481;43.406;24.454;2023-01-13T11:47:29;7.90;;;6.47;;
8889;SDS011;4481;43.406;24.454;2023-01-13T11:49:57;7.87;;;5.43;;
8889;SDS011;4481;43.406;24.454;2023-01-13T11:52:26;7.67;;;6.27;;
8889;SDS011;4481;43.406;24.454;2023-01-13T11:55:11;10.47;;;6.40;;
8889;SDS011;4481;43.406;24.454;2023-01-13T12:01:02;5.60;;;5.10;;
8889;SDS011;4481;43.406;24.454;2023-01-13T12:03:47;7.00;;;4.43;;
8889;SDS011;4481;43.406;24.454;2023-01-13T12:06:23;5.40;;;4.87;;
8889;SDS011;4481;43.406;24.454;2023-01-13T12:09:05;7.33;;;6.13;;
8889;SDS011;4481;43.406;24.454;2023-01-13T12:11:44;8.20;;;6.97;;
8889;SDS011;4481;43.406;24.454;2023-01-13T12:14:43;5.97;;;5.37;;
8889;SDS011;4481;43.406;24.454;2023-01-13T12:17:24;7.33;;;6.17;;
8889;SDS011;4481;43.406;24.454;2023-01-13T12:19:59;7.57;;;5.83;;
8889;SDS011;4481;43.406;24.454;2023-01-13T12:22:41;7.97;;;6.50;;
8889;SDS011;4481;43.406;24.454;2023-01-13T12:25:12;6.80;;;6.17;;
8889;SDS011;4481;43.406;24.454;2023-01-13T12:27:46;7.07;;;6.27;;
8889;SDS011;4481;43.406;24.454;2023-01-13T12:30:21;8.20;;;6.63;;
8889;SDS011;4481;43.406;24.454;2023-01-13T12:32:52;7.27;;;6.50;;
8889;SDS011;4481;43.406;24.454;2023-01-13T12:35:24;8.80;;;7.07;;
8889;SDS011;4481;43.406;24.454;2023-01-13T12:38:02;7.43;;;6.73;;
8889;SDS011;4481;43.406;24.454;2023-01-13T12:40:40;6.73;;;6.03;;
8889;SDS011;4481;43.406;24.454;2023-01-13T12:43:16;10.07;;;6.60;;
8889;SDS011;4481;43.406;24.454;2023-01-13T12:46:32;6.70;;;5.63;;
8889;SDS011;4481;43.406;24.454;2023-01-13T12:49:18;7.13;;;6.37;;
8889;SDS011;4481;43.406;24.454;2023-01-13T13:00:55;9.43;;;7.87;;
8889;SDS011;4481;43.406;24.454;2023-01-13T13:03:27;8.57;;;7.47;;
8889;SDS011;4481;43.406;24.454;2023-01-13T13:05:57;11.80;;;6.40;;
8889;SDS011;4481;43.406;24.454;2023-01-13T13:08:49;7.97;;;7.23;;
8889;SDS011;4481;43.406;24.454;2023-01-13T13:11:42;8.97;;;8.00;;
8889;SDS011;4481;43.406;24.454;2023-01-13T13:17:43;7.10;;;5.87;;
8889;SDS011;4481;43.406;24.454;2023-01-13T13:29:14;7.37;;;5.63;;
8889;SDS011;4481;43.406;24.454;2023-01-13T13:34:57;5.83;;;5.00;;
8889;SDS011;4481;43.406;24.454;2023-01-13T13:37:36;8.37;;;5.63;;
8889;SDS011;4481;43.406;24.454;2023-01-13T13:40:29;6.10;;;5.00;;
8889;SDS011;4481;43.406;24.454;2023-01-13T13:43:16;5.37;;;4.47;;
8889;SDS011;4481;43.406;24.454;2023-01-13T13:46:10;5.03;;;4.53;;
8889;SDS011;4481;43.406;24.454;2023-01-13T13:49:10;4.60;;;4.20;;
8889;SDS011;4481;43.406;24.454;2023-01-13T13:51:37;5.80;;;5.23;;
8889;SDS011;4481;43.406;24.454;2023-01-13T13:54:09;6.30;;;5.53;;
8889;SDS011;4481;43.406;24.454;2023-01-13T13:56:39;5.27;;;4.73;;
8889;SDS011;4481;43.406;24.454;2023-01-13T13:59:10;6.77;;;5.37;;
8889;SDS011;4481;43.406;24.454;2023-01-13T14:01:39;6.13;;;5.00;;
8889;SDS011;4481;43.406;24.454;2023-01-13T14:04:12;6.73;;;5.13;;
8889;SDS011;4481;43.406;24.454;2023-01-13T14:06:48;5.07;;;4.57;;
8889;SDS011;4481;43.406;24.454;2023-01-13T14:09:17;6.60;;;4.70;;
8889;SDS011;4481;43.406;24.454;2023-01-13T14:11:53;9.27;;;5.30;;
8889;SDS011;4481;43.406;24.454;2023-01-13T14:14:21;6.87;;;5.87;;
8889;SDS011;4481;43.406;24.454;2023-01-13T14:16:47;10.97;;;5.57;;
8889;SDS011;4481;43.406;24.454;2023-01-13T14:19:21;8.73;;;6.30;;
8889;SDS011;4481;43.406;24.454;2023-01-13T14:21:52;9.27;;;6.47;;
8889;SDS011;4481;43.406;24.454;2023-01-13T14:24:19;12.90;;;6.33;;
8889;SDS011;4481;43.406;24.454;2023-01-13T14:26:46;6.70;;;6.00;;
8889;SDS011;4481;43.406;24.454;2023-01-13T14:29:17;11.10;;;6.10;;
8889;SDS011;4481;43.406;24.454;2023-01-13T14:31:46;8.63;;;5.57;;
8889;SDS011;4481;43.406;24.454;2023-01-13T14:34:13;9.87;;;6.47;;
8889;SDS011;4481;43.406;24.454;2023-01-13T14:36:39;7.53;;;5.93;;
8889;SDS011;4481;43.406;24.454;2023-01-13T14:39:22;9.33;;;6.03;;
8889;SDS011;4481;43.406;24.454;2023-01-13T14:41:49;7.83;;;5.70;;
8889;SDS011;4481;43.406;24.454;2023-01-13T14:44:18;9.33;;;5.00;;
8889;SDS011;4481;43.406;24.454;2023-01-13T14:46:50;8.93;;;5.60;;
8889;SDS011;4481;43.406;24.454;2023-01-13T14:49:21;9.27;;;5.40;;
8889;SDS011;4481;43.406;24.454;2023-01-13T14:51:50;7.43;;;5.53;;
8889;SDS011;4481;43.406;24.454;2023-01-13T14:57:14;8.97;;;6.13;;
8889;SDS011;4481;43.406;24.454;2023-01-13T14:59:48;10.07;;;7.43;;
8889;SDS011;4481;43.406;24.454;2023-01-13T15:02:27;9.37;;;7.37;;
8889;SDS011;4481;43.406;24.454;2023-01-13T15:07:55;7.90;;;7.03;;
8889;SDS011;4481;43.406;24.454;2023-01-13T15:10:24;12.73;;;7.57;;
8889;SDS011;4481;43.406;24.454;2023-01-13T15:12:53;13.17;;;9.03;;
8889;SDS011;4481;43.406;24.454;2023-01-13T15:15:22;10.33;;;7.17;;
8889;SDS011;4481;43.406;24.454;2023-01-13T15:17:50;11.77;;;9.13;;
8889;SDS011;4481;43.406;24.454;2023-01-13T15:20:17;15.60;;;9.97;;
8889;SDS011;4481;43.406;24.454;2023-01-13T15:22:44;18.00;;;11.77;;
8889;SDS011;4481;43.406;24.454;2023-01-13T15:25:10;16.57;;;11.87;;
8889;SDS011;4481;43.406;24.454;2023-01-13T15:27:38;10.90;;;9.77;;
8889;SDS011;4481;43.406;24.454;2023-01-13T15:30:11;10.97;;;8.30;;
8889;SDS011;4481;43.406;24.454;2023-01-13T15:32:39;8.07;;;6.40;;
8889;SDS011;4481;43.406;24.454;2023-01-13T15:35:06;11.47;;;6.80;;
8889;SDS011;4481;43.406;24.454;2023-01-13T15:37:33;18.83;;;11.63;;
8889;SDS011;4481;43.406;24.454;2023-01-13T15:39:59;22.73;;;13.67;;
8889;SDS011;4481;43.406;24.454;2023-01-13T15:42:25;18.93;;;13.47;;
8889;SDS011;4481;43.406;24.454;2023-01-13T15:45:11;17.63;;;12.03;;
8889;SDS011;4481;43.406;24.454;2023-01-13T15:47:56;18.63;;;12.60;;
8889;SDS011;4481;43.406;24.454;2023-01-13T15:50:22;18.50;;;13.80;;
8889;SDS011;4481;43.406;24.454;2023-01-13T15:52:48;15.20;;;12.27;;
8889;SDS011;4481;43.406;24.454;2023-01-13T15:55:15;18.40;;;12.73;;
8889;SDS011;4481;43.406;24.454;2023-01-13T15:57:42;21.40;;;12.83;;
8889;SDS011;4481;43.406;24.454;2023-01-13T16:00:14;15.70;;;11.53;;
8889;SDS011;4481;43.406;24.454;2023-01-13T16:02:44;15.90;;;10.63;;
8889;SDS011;4481;43.406;24.454;2023-01-13T16:05:11;11.37;;;10.07;;
8889;SDS011;4481;43.406;24.454;2023-01-13T16:07:37;12.87;;;9.77;;